createdAt,value
2023-03-10T00:00:08.753Z,0.50
2023-03-10T00:02:36.951Z,0.51
2023-03-10T00:05:06.791Z,0.53
2023-03-10T00:07:35.014Z,0.53
2023-03-10T00:10:03.650Z,0.54
2023-03-10T00:12:31.866Z,0.53
2023-03-10T00:15:00.156Z,0.48
2023-03-10T00:17:28.819Z,0.43
2023-03-10T00:19:57.339Z,0.41
2023-03-10T00:22:25.723Z,0.40
2023-03-10T00:24:53.858Z,0.39
2023-03-10T00:27:22.169Z,0.40
2023-03-10T00:29:52.377Z,0.41
2023-03-10T00:32:20.598Z,0.41
2023-03-10T00:34:48.914Z,0.40
2023-03-10T00:37:18.175Z,0.40
2023-03-10T00:39:49.840Z,0.40
2023-03-10T00:42:18.032Z,0.40
2023-03-10T00:44:48.023Z,0.39
2023-03-10T00:47:16.974Z,0.41
2023-03-10T00:49:45.264Z,0.40
2023-03-10T00:52:13.424Z,0.37
2023-03-10T00:54:42.126Z,0.38
2023-03-10T00:57:10.471Z,0.41
2023-03-10T00:59:50.001Z,0.45
2023-03-10T01:02:19.802Z,0.46
2023-03-10T01:04:48.367Z,0.45
2023-03-10T01:07:16.677Z,0.45
2023-03-10T01:09:44.861Z,0.44
2023-03-10T01:12:13.063Z,0.41
2023-03-10T01:14:41.262Z,0.41
2023-03-10T01:17:09.979Z,0.40
2023-03-10T01:19:38.157Z,0.40
2023-03-10T01:22:06.360Z,0.40
2023-03-10T01:24:34.642Z,0.41
2023-03-10T01:27:02.821Z,0.40
2023-03-10T01:29:31.115Z,0.39
2023-03-10T01:31:59.366Z,0.40
2023-03-10T01:34:28.014Z,0.39
2023-03-10T01:36:56.261Z,0.40
2023-03-10T01:39:24.423Z,0.39
2023-03-10T01:41:52.612Z,0.40
2023-03-10T01:44:21.639Z,0.39
2023-03-10T01:46:52.887Z,0.35
2023-03-10T01:49:31.301Z,0.34
2023-03-10T01:52:04.017Z,0.36
2023-03-10T01:54:42.343Z,0.37
2023-03-10T01:57:13.910Z,0.39
2023-03-10T01:59:43.441Z,0.36
2023-03-10T02:02:12.084Z,0.31
2023-03-10T02:04:44.044Z,0.24
2023-03-10T02:07:13.888Z,0.19
2023-03-10T02:09:45.892Z,0.16
2023-03-10T02:12:15.269Z,0.14
2023-03-10T02:14:47.075Z,0.08
2023-03-10T02:17:17.950Z,0.05
2023-03-10T02:20:02.535Z,0.06
2023-03-10T02:22:32.605Z,0.05
2023-03-10T02:25:07.998Z,0.04
2023-03-10T02:27:38.291Z,0.03
2023-03-10T02:30:11.701Z,0.02
2023-03-10T02:32:42.783Z,0.01
2023-03-10T02:35:11.900Z,0.01
2023-03-10T02:37:46.266Z,0.01
2023-03-10T02:40:34.750Z,0.02
2023-03-10T02:43:13.678Z,0.06
2023-03-10T02:45:44.712Z,0.10
2023-03-10T02:48:16.004Z,0.13
2023-03-10T02:50:46.843Z,0.15
2023-03-10T02:53:18.227Z,0.16
2023-03-10T02:55:46.764Z,0.19
2023-03-10T02:58:15.447Z,0.20
2023-03-10T03:00:45.341Z,0.21
2023-03-10T03:03:16.154Z,0.24
2023-03-10T03:05:44.751Z,0.26
2023-03-10T03:08:13.469Z,0.29
2023-03-10T03:10:43.097Z,0.34
2023-03-10T03:13:12.351Z,0.37
2023-03-10T03:15:42.004Z,0.39
2023-03-10T03:18:10.976Z,0.42
2023-03-10T03:20:40.439Z,0.42
2023-03-10T03:23:09.570Z,0.43
2023-03-10T03:25:40.627Z,0.43
2023-03-10T03:28:10.984Z,0.43
2023-03-10T03:30:40.117Z,0.42
2023-03-10T03:33:08.756Z,0.40
2023-03-10T03:35:38.134Z,0.41
2023-03-10T03:38:07.869Z,0.38
2023-03-10T03:40:39.296Z,0.37
2023-03-10T03:43:07.705Z,0.38
2023-03-10T03:45:36.071Z,0.37
2023-03-10T03:48:04.677Z,0.37
2023-03-10T03:50:33.447Z,0.38
2023-03-10T03:53:05.748Z,0.40
2023-03-10T03:55:35.167Z,0.40
2023-03-10T03:58:03.882Z,0.42
2023-03-10T04:00:33.769Z,0.44
2023-03-10T04:03:03.343Z,0.47
2023-03-10T04:05:31.807Z,0.50
2023-03-10T04:08:00.127Z,0.51
2023-03-10T04:10:29.904Z,0.50
2023-03-10T04:12:58.239Z,0.49
2023-03-10T04:15:27.368Z,0.49
2023-03-10T04:17:57.180Z,0.48
2023-03-10T04:20:26.129Z,0.48
2023-03-10T04:22:54.901Z,0.51
2023-03-10T04:25:26.123Z,0.50
2023-03-10T04:27:54.533Z,0.48
2023-03-10T04:30:28.296Z,0.47
2023-03-10T04:32:59.301Z,0.50
2023-03-10T04:35:29.042Z,0.49
2023-03-10T04:37:57.834Z,0.51
2023-03-10T04:40:26.331Z,0.52
2023-03-10T04:46:21.830Z,0.68
2023-03-10T04:48:51.383Z,0.71
2023-03-10T04:51:19.747Z,0.74
2023-03-10T04:53:52.369Z,0.76
2023-03-10T04:56:21.050Z,0.78
2023-03-10T04:58:49.268Z,0.81
2023-03-10T05:01:18.012Z,0.81
2023-03-10T05:03:49.730Z,0.78
2023-03-10T05:06:21.499Z,0.76
2023-03-10T05:09:05.399Z,0.79
2023-03-10T05:11:34.330Z,0.83
2023-03-10T05:14:03.120Z,0.86
2023-03-10T05:16:31.481Z,0.86
2023-03-10T05:18:59.692Z,0.84
2023-03-10T05:21:29.365Z,0.83
2023-03-10T05:23:58.735Z,0.80
2023-03-10T05:26:27.642Z,0.79
2023-03-10T05:28:56.130Z,0.79
2023-03-10T05:31:44.760Z,0.81
2023-03-10T05:34:16.927Z,0.84
2023-03-10T05:36:46.037Z,0.87
2023-03-10T05:39:16.440Z,0.89
2023-03-10T05:41:47.153Z,0.91
2023-03-10T05:44:15.265Z,0.91
2023-03-10T05:46:43.559Z,0.92
2023-03-10T05:49:11.869Z,0.93
2023-03-10T05:51:40.495Z,0.94
2023-03-10T05:54:09.187Z,0.95
2023-03-10T05:56:37.784Z,0.96
2023-03-10T05:59:06.754Z,0.97
2023-03-10T06:01:36.728Z,0.96
2023-03-10T06:04:05.165Z,0.98
2023-03-10T06:06:34.358Z,0.99
2023-03-10T06:09:03.934Z,1.00
2023-03-10T06:11:33.150Z,1.02
2023-03-10T06:14:01.379Z,1.02
2023-03-10T06:16:29.742Z,1.03
2023-03-10T06:18:58.382Z,1.05
2023-03-10T06:21:28.083Z,1.06
2023-03-10T06:23:56.350Z,1.09
2023-03-10T06:26:24.521Z,1.15
2023-03-10T06:28:53.027Z,1.20
2023-03-10T06:31:23.760Z,1.26
2023-03-10T06:33:52.243Z,1.32
2023-03-10T06:36:21.395Z,1.35
2023-03-10T06:38:49.756Z,1.40
2023-03-10T06:41:18.206Z,1.45
2023-03-10T06:43:47.365Z,1.49
2023-03-10T06:46:15.929Z,1.53
2023-03-10T06:48:45.271Z,1.58
2023-03-10T06:51:17.095Z,1.64
2023-03-10T06:53:45.396Z,1.69
2023-03-10T06:56:18.097Z,1.74
2023-03-10T06:58:47.403Z,1.78
2023-03-10T07:01:24.939Z,1.84
2023-03-10T07:03:53.591Z,1.86
2023-03-10T07:06:22.305Z,1.89
2023-03-10T07:08:51.112Z,1.94
2023-03-10T07:11:22.893Z,2.01
2023-03-10T07:14:43.677Z,2.06
2023-03-10T07:21:34.303Z,2.12
2023-03-10T07:24:03.265Z,2.16
2023-03-10T07:26:31.817Z,2.20
2023-03-10T07:29:02.015Z,2.23
2023-03-10T07:31:35.966Z,2.29
2023-03-10T07:37:58.636Z,2.42
2023-03-10T07:40:36.221Z,2.44
2023-03-10T07:46:37.174Z,2.56
2023-03-10T07:50:22.190Z,2.61
2023-03-10T07:52:50.864Z,2.72
2023-03-10T07:55:19.562Z,2.78
2023-03-10T07:58:12.700Z,2.84
2023-03-10T08:00:41.420Z,2.92
2023-03-10T08:03:46.689Z,2.98
2023-03-10T08:06:20.475Z,3.09
2023-03-10T08:08:49.326Z,3.14
2023-03-10T08:14:47.259Z,3.29
2023-03-10T08:17:15.883Z,3.32
2023-03-10T08:19:44.286Z,3.34
2023-03-10T08:22:12.601Z,3.37
2023-03-10T08:24:41.440Z,3.38
2023-03-10T08:27:09.634Z,3.40
2023-03-10T08:29:37.823Z,3.44
2023-03-10T08:32:07.241Z,3.46
2023-03-10T08:34:38.941Z,3.48
2023-03-10T08:37:10.150Z,3.49
2023-03-10T08:39:39.409Z,3.50
2023-03-10T08:42:11.079Z,3.54
2023-03-10T08:44:40.354Z,3.59
2023-03-10T08:47:10.233Z,3.62
2023-03-10T08:49:38.511Z,3.64
2023-03-10T08:52:21.772Z,3.71
2023-03-10T08:54:50.036Z,3.80
2023-03-10T08:57:37.336Z,3.90
2023-03-10T09:00:29.818Z,4.02
2023-03-10T09:03:00.630Z,4.14
2023-03-10T09:05:31.327Z,4.22
2023-03-10T09:08:07.430Z,4.31
2023-03-10T09:10:36.849Z,4.42
2023-03-10T09:13:13.618Z,4.49
2023-03-10T09:15:42.226Z,4.56
2023-03-10T09:18:12.070Z,4.64
2023-03-10T09:20:41.379Z,4.74
2023-03-10T09:23:11.122Z,4.81
2023-03-10T09:25:40.177Z,4.87
2023-03-10T09:28:10.862Z,4.92
2023-03-10T09:30:59.629Z,4.97
2023-03-10T09:33:28.577Z,5.03
2023-03-10T09:36:06.483Z,5.07
2023-03-10T09:38:36.289Z,5.07
2023-03-10T09:41:38.116Z,5.09
2023-03-10T09:44:23.919Z,5.09
2023-03-10T09:47:05.278Z,5.11
2023-03-10T09:49:38.728Z,5.12
2023-03-10T09:52:22.182Z,5.13
2023-03-10T09:54:58.702Z,5.14
2023-03-10T10:02:02.580Z,5.19
2023-03-10T10:04:36.671Z,5.19
2023-03-10T10:07:12.919Z,5.23
2023-03-10T10:10:29.731Z,5.25
2023-03-10T10:13:47.111Z,5.32
2023-03-10T10:16:45.147Z,5.37
2023-03-10T10:19:18.628Z,5.43
2023-03-10T10:26:09.029Z,5.55
2023-03-10T10:28:41.904Z,5.61
2023-03-10T10:31:17.085Z,5.66
2023-03-10T10:34:10.021Z,5.70
2023-03-10T10:36:51.412Z,5.76
2023-03-10T10:39:28.244Z,5.83
2023-03-10T10:42:13.582Z,5.90
2023-03-10T10:44:43.855Z,5.96
2023-03-10T10:47:26.236Z,6.03
2023-03-10T10:49:56.296Z,6.12
2023-03-10T10:52:26.027Z,6.24
2023-03-10T10:54:59.394Z,6.37
2023-03-10T10:57:32.286Z,6.52
2023-03-10T11:00:24.639Z,6.63
2023-03-10T11:04:12.450Z,6.76
2023-03-10T11:06:40.899Z,6.91
2023-03-10T11:09:53.826Z,7.04
2023-03-10T11:12:49.288Z,7.19
2023-03-10T11:15:23.976Z,7.33
2023-03-10T11:17:57.006Z,7.43
2023-03-10T11:20:32.245Z,7.52
2023-03-10T11:23:14.585Z,7.59
2023-03-10T11:25:50.095Z,7.73
2023-03-10T11:28:40.009Z,7.90
2023-03-10T11:31:20.245Z,8.11
2023-03-10T11:33:54.194Z,8.31
2023-03-10T11:36:38.404Z,8.49
2023-03-10T11:39:21.404Z,8.69
2023-03-10T11:42:05.295Z,8.84
2023-03-10T11:44:38.862Z,8.98
2023-03-10T11:47:16.682Z,9.11
2023-03-10T11:49:52.275Z,9.21
2023-03-10T11:52:25.564Z,9.38
2023-03-10T11:55:00.774Z,9.55
2023-03-10T11:57:36.684Z,9.68
2023-03-10T12:00:18.205Z,9.79
2023-03-10T12:02:58.820Z,9.94
2023-03-10T12:05:31.981Z,10.08
2023-03-10T12:08:04.298Z,10.22
2023-03-10T12:10:38.189Z,10.36
2023-03-10T12:13:12.898Z,10.49
2023-03-10T12:15:42.984Z,10.63
2023-03-10T12:18:12.004Z,10.73
2023-03-10T12:20:40.304Z,10.79
2023-03-10T12:23:39.795Z,10.84
2023-03-10T12:26:08.178Z,10.91
2023-03-10T12:28:37.404Z,10.97
2023-03-10T12:31:07.378Z,11.04
2023-03-10T12:33:52.721Z,11.08
2023-03-10T12:36:34.832Z,11.14
2023-03-10T12:39:37.324Z,11.20
2023-03-10T12:42:26.328Z,11.26
2023-03-10T12:45:02.744Z,11.32
2023-03-10T12:47:43.549Z,11.38
2023-03-10T12:50:33.050Z,11.44
2023-03-10T12:53:21.009Z,11.53
2023-03-10T12:56:23.333Z,11.64
2023-03-10T12:59:05.152Z,11.78
2023-03-10T13:01:55.096Z,11.90
2023-03-10T13:04:26.710Z,12.02
2023-03-10T13:07:03.041Z,12.12
2023-03-10T13:09:37.961Z,12.21
2023-03-10T13:12:16.961Z,12.32
2023-03-10T13:14:51.000Z,12.40
2023-03-10T13:17:29.948Z,12.47
2023-03-10T13:20:51.045Z,12.57
2023-03-10T13:23:41.845Z,12.67
2023-03-10T13:26:16.815Z,12.72
2023-03-10T13:28:52.781Z,12.78
2023-03-10T13:31:24.378Z,12.82
2023-03-10T13:35:04.301Z,12.85
2023-03-10T13:37:32.616Z,12.87
2023-03-10T13:40:09.790Z,12.87
2023-03-10T13:42:44.285Z,12.88
2023-03-10T13:45:23.041Z,12.88
2023-03-10T13:47:55.650Z,12.90
2023-03-10T13:50:24.915Z,12.92
2023-03-10T13:52:56.695Z,12.95
2023-03-10T13:55:49.632Z,12.96
2023-03-10T13:58:18.380Z,12.96
2023-03-10T14:00:49.925Z,12.95
2023-03-10T14:03:19.643Z,12.94
2023-03-10T14:10:21.175Z,12.93
2023-03-10T14:23:38.313Z,13.32
2023-03-10T14:26:33.508Z,13.39
2023-03-10T14:29:11.726Z,13.36
2023-03-10T14:31:42.672Z,13.31
2023-03-10T14:34:15.665Z,13.25
2023-03-10T14:36:46.470Z,13.20
2023-03-10T14:39:18.127Z,13.15
2023-03-10T14:42:21.919Z,13.12
2023-03-10T14:44:55.646Z,13.07
2023-03-10T14:47:50.838Z,13.05
2023-03-10T14:50:24.255Z,13.02
2023-03-10T14:52:58.499Z,12.99
2023-03-10T14:55:41.163Z,12.97
2023-03-10T14:58:17.923Z,12.96
2023-03-10T15:00:50.226Z,12.95
2023-03-10T15:03:23.909Z,12.96
2023-03-10T15:05:54.887Z,12.96
2023-03-10T15:08:26.809Z,12.95
2023-03-10T15:10:58.821Z,12.94
2023-03-10T15:13:31.033Z,12.94
2023-03-10T15:16:02.348Z,12.91
2023-03-10T15:23:59.900Z,12.80
2023-03-10T15:26:31.561Z,12.76
2023-03-10T15:29:53.521Z,12.73
2023-03-10T15:33:12.565Z,12.69
2023-03-10T15:35:44.331Z,12.65
2023-03-10T15:38:49.414Z,12.60
2023-03-10T15:41:47.605Z,12.57
2023-03-10T15:45:07.747Z,12.52
2023-03-10T15:52:45.244Z,12.44
2023-03-10T15:59:10.801Z,12.36
2023-03-10T16:01:42.082Z,12.32
2023-03-10T16:04:13.180Z,12.29
2023-03-10T16:11:26.783Z,12.17
2023-03-10T16:13:58.004Z,12.16
2023-03-10T16:17:16.175Z,12.10
2023-03-10T16:22:59.722Z,12.04
2023-03-10T16:25:34.346Z,12.01
2023-03-10T16:28:16.020Z,11.96
2023-03-10T16:30:53.087Z,11.92
2023-03-10T16:33:40.350Z,11.87
2023-03-10T16:36:14.896Z,11.82
2023-03-10T16:38:46.426Z,11.77
2023-03-10T16:41:21.187Z,11.73
2023-03-10T16:43:54.709Z,11.71
2023-03-10T16:46:32.196Z,11.69
2023-03-10T16:49:04.078Z,11.66
2023-03-10T16:51:38.201Z,11.66
2023-03-10T16:54:12.098Z,11.64
2023-03-10T16:56:45.675Z,11.63
2023-03-10T16:59:39.107Z,11.62
2023-03-10T17:02:14.347Z,11.59
2023-03-10T17:04:44.765Z,11.56
2023-03-10T17:07:15.818Z,11.53
2023-03-10T17:09:47.023Z,11.51
2023-03-10T17:12:18.512Z,11.49
2023-03-10T17:14:50.909Z,11.46
2023-03-10T17:17:22.083Z,11.45
2023-03-10T17:19:55.049Z,11.43
2023-03-10T17:22:27.827Z,11.40
2023-03-10T17:25:03.298Z,11.38
2023-03-10T17:27:38.175Z,11.34
2023-03-10T17:30:11.998Z,11.30
2023-03-10T17:32:42.815Z,11.27
2023-03-10T17:35:25.801Z,11.25
2023-03-10T17:38:06.114Z,11.22
2023-03-10T17:40:41.713Z,11.21
2023-03-10T17:43:23.237Z,11.18
2023-03-10T17:46:36.628Z,11.15
2023-03-10T17:49:07.959Z,11.10
2023-03-10T17:51:41.055Z,11.06
2023-03-10T17:54:13.083Z,11.02
2023-03-10T17:56:44.574Z,10.98
2023-03-10T17:59:16.540Z,10.93
2023-03-10T18:01:49.326Z,10.90
2023-03-10T18:04:20.569Z,10.85
2023-03-10T18:06:51.929Z,10.83
2023-03-10T18:09:23.111Z,10.81
2023-03-10T18:11:55.436Z,10.78
2023-03-10T18:14:26.988Z,10.77
2023-03-10T18:16:59.453Z,10.75
2023-03-10T18:19:30.584Z,10.70
2023-03-10T18:22:05.811Z,10.65
2023-03-10T18:24:44.706Z,10.60
2023-03-10T18:27:16.695Z,10.54
2023-03-10T18:29:47.868Z,10.49
2023-03-10T18:32:19.034Z,10.45
2023-03-10T18:34:50.519Z,10.38
2023-03-10T18:37:21.529Z,10.34
2023-03-10T18:39:53.382Z,10.30
2023-03-10T18:42:24.402Z,10.27
2023-03-10T18:44:56.081Z,10.25
2023-03-10T18:47:27.645Z,10.23
2023-03-10T18:49:59.701Z,10.21
2023-03-10T18:52:33.082Z,10.19
2023-03-10T18:55:05.456Z,10.17
2023-03-10T18:57:36.693Z,10.13
2023-03-10T19:00:12.432Z,10.08
2023-03-10T19:02:43.723Z,10.05
2023-03-10T19:05:19.857Z,10.03
2023-03-10T19:07:50.868Z,10.02
2023-03-10T19:10:22.502Z,10.03
2023-03-10T19:12:53.503Z,10.02
2023-03-10T19:15:24.912Z,10.02
2023-03-10T19:17:56.359Z,10.02
2023-03-10T19:20:27.869Z,10.01
2023-03-10T19:22:59.989Z,10.01
2023-03-10T19:25:31.999Z,9.99
2023-03-10T19:28:03.004Z,9.97
2023-03-10T19:30:34.196Z,9.93
2023-03-10T19:33:05.457Z,9.88
2023-03-10T19:35:36.499Z,9.86
2023-03-10T19:38:08.236Z,9.82
2023-03-10T19:40:39.673Z,9.79
2023-03-10T19:43:10.757Z,9.76
2023-03-10T19:45:42.376Z,9.74
2023-03-10T19:48:13.847Z,9.72
2023-03-10T19:50:44.752Z,9.69
2023-03-10T19:53:15.486Z,9.67
2023-03-10T19:55:46.472Z,9.65
2023-03-10T19:58:18.497Z,9.63
2023-03-10T20:00:49.975Z,9.60
2023-03-10T20:03:23.790Z,9.58
2023-03-10T20:05:54.988Z,9.56
2023-03-10T20:08:26.346Z,9.54
2023-03-10T20:11:02.181Z,9.53
2023-03-10T20:13:35.871Z,9.54
2023-03-10T20:16:08.623Z,9.54
2023-03-10T20:18:39.856Z,9.55
2023-03-10T20:21:11.124Z,9.57
2023-03-10T20:23:47.532Z,9.58
2023-03-10T20:26:19.792Z,9.57
2023-03-10T20:28:51.692Z,9.57
2023-03-10T20:31:24.407Z,9.59
2023-03-10T20:33:55.765Z,9.60
2023-03-10T20:36:26.609Z,9.61
2023-03-10T20:38:58.010Z,9.59
2023-03-10T20:41:28.800Z,9.58
2023-03-10T20:44:00.683Z,9.59
2023-03-10T20:46:32.817Z,9.59
2023-03-10T20:49:06.010Z,9.59
2023-03-10T20:51:37.089Z,9.59
2023-03-10T20:54:08.119Z,9.59
2023-03-10T20:56:39.057Z,9.59
2023-03-10T20:59:10.211Z,9.59
2023-03-10T21:01:42.585Z,9.58
2023-03-10T21:04:13.755Z,9.57
2023-03-10T21:06:47.918Z,9.55
2023-03-10T21:09:22.323Z,9.55
2023-03-10T21:11:53.525Z,9.54
2023-03-10T21:14:27.265Z,9.55
2023-03-10T21:17:00.041Z,9.54
2023-03-10T21:19:32.538Z,9.54
2023-03-10T21:22:09.717Z,9.56
2023-03-10T21:24:41.374Z,9.57
2023-03-10T21:27:12.431Z,9.58
2023-03-10T21:29:43.857Z,9.59
2023-03-10T21:32:14.722Z,9.61
2023-03-10T21:34:46.928Z,9.62
2023-03-10T21:37:17.940Z,9.63
2023-03-10T21:39:52.679Z,9.63
2023-03-10T21:42:23.673Z,9.63
2023-03-10T21:44:55.992Z,9.65
2023-03-10T21:47:26.753Z,9.67
2023-03-10T21:49:57.954Z,9.66
2023-03-10T21:52:28.814Z,9.65
2023-03-10T21:55:00.526Z,9.65
2023-03-10T21:57:32.931Z,9.63
2023-03-10T22:00:04.248Z,9.60
2023-03-10T22:02:38.987Z,9.58
2023-03-10T22:05:12.844Z,9.56
2023-03-10T22:07:44.331Z,9.54
2023-03-10T22:10:17.885Z,9.52
2023-03-10T22:12:49.933Z,9.51
2023-03-10T22:15:23.258Z,9.49
2023-03-10T22:17:56.833Z,9.46
2023-03-10T22:20:29.458Z,9.43
2023-03-10T22:23:00.451Z,9.40
2023-03-10T22:25:31.508Z,9.38
2023-03-10T22:28:03.012Z,9.35
2023-03-10T22:30:33.852Z,9.32
2023-03-10T22:33:06.924Z,9.30
2023-03-10T22:35:38.526Z,9.28
2023-03-10T22:38:09.851Z,9.25
2023-03-10T22:40:40.931Z,9.23
2023-03-10T22:43:11.779Z,9.21
2023-03-10T22:45:42.947Z,9.18
2023-03-10T22:48:13.847Z,9.16
2023-03-10T22:50:46.846Z,9.14
2023-03-10T22:53:19.753Z,9.12
2023-03-10T22:55:52.045Z,9.11
2023-03-10T22:58:23.126Z,9.10
2023-03-10T23:00:53.798Z,9.09
2023-03-10T23:03:24.835Z,9.08
2023-03-10T23:05:58.618Z,9.08
2023-03-10T23:08:29.516Z,9.05
2023-03-10T23:11:00.224Z,9.03
2023-03-10T23:13:31.044Z,9.01
2023-03-10T23:16:02.037Z,8.99
2023-03-10T23:18:32.826Z,8.98
2023-03-10T23:21:03.815Z,8.97
2023-03-10T23:23:35.006Z,8.96
2023-03-10T23:26:06.233Z,8.95
2023-03-10T23:28:36.978Z,8.93
2023-03-10T23:31:08.766Z,8.93
2023-03-10T23:33:40.737Z,8.92
2023-03-10T23:36:13.619Z,8.93
2023-03-10T23:38:44.442Z,8.90
2023-03-10T23:41:15.385Z,8.87
2023-03-10T23:43:46.114Z,8.85
2023-03-10T23:46:16.909Z,8.83
2023-03-10T23:48:47.693Z,8.83
2023-03-10T23:51:19.085Z,8.80
2023-03-10T23:53:49.827Z,8.78
2023-03-10T23:56:20.619Z,8.76
2023-03-10T23:58:51.281Z,8.74
